Time;durP1;ratioP1;P1;durP2;ratioP2;P2;SDS_P1;SDS_P2;PMS_P1;PMS_P2;Temp;Humidity;BMP_temperature;BMP_pressure;BME280_temperature;BME280_humidity;BME280_pressure;Samples;Min_cycle;Max_cycle;Signal;HPM_P1;HPM_P2
2022/04/02 00:00:45;;;;;;;9.25;8.45;;;5.00;99.90;;;;;;5051772;28;20170;-67
2022/04/02 00:03:11;;;;;;;8.60;7.83;;;5.10;99.90;;;;;;5051955;28;20588;-67
2022/04/02 00:05:37;;;;;;;8.50;7.70;;;5.30;99.90;;;;;;5051361;28;20626;-67
2022/04/02 00:08:03;;;;;;;8.00;7.30;;;5.20;99.90;;;;;;5052507;28;20182;-67
2022/04/02 00:10:29;;;;;;;8.13;7.35;;;5.20;99.90;;;;;;5051262;28;20201;-67
2022/04/02 00:12:56;;;;;;;7.37;6.47;;;4.90;99.90;;;;;;5052265;28;20639;-67
2022/04/02 00:15:22;;;;;;;7.30;6.70;;;5.40;99.90;;;;;;5052140;28;20181;-67
2022/04/02 00:17:48;;;;;;;8.70;7.88;;;4.70;99.90;;;;;;5051452;28;20201;-67
2022/04/02 00:20:14;;;;;;;8.55;7.30;;;5.20;99.90;;;;;;5051781;28;20179;-67
2022/04/02 00:23:35;;;;;;;7.50;6.80;;;5.20;99.90;;;;;;5051523;28;20166;-67
2022/04/02 00:25:26;;;;;;;7.45;6.85;;;5.10;99.90;;;;;;5051676;28;20431;-75
2022/04/02 00:27:51;;;;;;;7.70;7.10;;;4.80;99.90;;;;;;5051989;28;20178;-66
2022/04/02 00:30:17;;;;;;;8.77;7.87;;;5.10;99.90;;;;;;5052333;28;20906;-67
2022/04/02 00:32:43;;;;;;;7.13;6.53;;;4.80;99.90;;;;;;5051410;28;20178;-67
2022/04/02 00:35:09;;;;;;;7.30;6.60;;;4.60;99.90;;;;;;5055003;28;20529;-67
2022/04/02 00:37:35;;;;;;;8.00;7.30;;;4.80;99.90;;;;;;5054994;28;20212;-67
2022/04/02 00:40:00;;;;;;;7.27;6.57;;;4.90;99.90;;;;;;5055592;28;20632;-67
2022/04/02 00:42:26;;;;;;;9.97;7.67;;;5.00;99.90;;;;;;5055134;28;20395;-74
2022/04/02 00:44:52;;;;;;;9.93;7.47;;;4.60;99.90;;;;;;5055487;28;20418;-67
2022/04/02 00:47:20;;;;;;;10.07;8.10;;;5.00;99.90;;;;;;5055183;28;20618;-67
2022/04/02 00:49:46;;;;;;;8.50;7.30;;;4.70;99.90;;;;;;5054767;28;20205;-67
2022/04/02 00:52:13;;;;;;;12.45;8.57;;;4.60;99.90;;;;;;5055473;28;20208;-67
2022/04/02 00:54:40;;;;;;;8.43;7.07;;;5.10;99.90;;;;;;5054677;28;20198;-67
2022/04/02 00:57:06;;;;;;;8.20;7.50;;;4.70;99.90;;;;;;5037404;28;20217;-67
2022/04/02 00:59:32;;;;;;;8.17;7.40;;;4.70;99.90;;;;;;5054455;28;20240;-67
2022/04/02 01:01:58;;;;;;;12.38;7.25;;;4.60;99.90;;;;;;5055188;28;20409;-67
2022/04/02 01:04:24;;;;;;;9.07;7.23;;;4.60;99.90;;;;;;5055625;28;20193;-67
2022/04/02 01:06:51;;;;;;;8.20;7.50;;;4.60;99.90;;;;;;5054882;28;20181;-67
2022/04/02 01:09:17;;;;;;;7.07;6.57;;;4.60;99.90;;;;;;5054739;28;20923;-67
2022/04/02 01:11:44;;;;;;;7.30;6.60;;;4.90;99.90;;;;;;5054431;28;20174;-67
2022/04/02 01:14:11;;;;;;;9.05;8.10;;;4.40;99.90;;;;;;5054631;28;20170;-67
2022/04/02 01:16:37;;;;;;;8.38;6.20;;;4.70;99.90;;;;;;5054203;28;20657;-67
2022/04/02 01:19:05;;;;;;;7.25;6.55;;;4.50;99.90;;;;;;5054983;28;20310;-67
2022/04/02 01:21:32;;;;;;;7.57;6.93;;;4.50;99.90;;;;;;5054267;28;20292;-67
2022/04/02 01:23:59;;;;;;;5.88;5.38;;;4.30;99.90;;;;;;5054843;28;20248;-67
2022/04/02 01:26:25;;;;;;;7.72;5.50;;;5.20;99.90;;;;;;5054966;28;20305;-67
2022/04/02 01:28:54;;;;;;;5.53;5.07;;;5.00;99.90;;;;;;5054122;28;20174;-67
2022/04/02 01:31:21;;;;;;;5.85;5.35;;;5.00;99.90;;;;;;5054227;28;20186;-67
2022/04/02 01:33:48;;;;;;;6.43;5.93;;;5.10;99.90;;;;;;5053723;28;20265;-67
2022/04/02 01:36:14;;;;;;;7.22;5.75;;;4.60;99.90;;;;;;5054443;28;20208;-67
2022/04/02 01:38:40;;;;;;;6.03;5.60;;;5.10;99.90;;;;;;5053891;28;20180;-67
2022/04/02 01:41:06;;;;;;;6.30;5.70;;;4.90;99.90;;;;;;5054504;28;20261;-67
2022/04/02 01:43:32;;;;;;;9.13;7.10;;;5.10;99.90;;;;;;5054065;28;20451;-67
2022/04/02 01:45:59;;;;;;;8.88;6.95;;;5.00;99.90;;;;;;5053559;28;20211;-67
2022/04/02 01:48:25;;;;;;;8.65;7.65;;;5.10;99.90;;;;;;5054286;28;20220;-67
2022/04/02 01:50:51;;;;;;;8.23;7.03;;;5.20;99.90;;;;;;5053375;28;20477;-67
2022/04/02 01:53:18;;;;;;;9.80;7.70;;;5.20;99.90;;;;;;5053902;28;20515;-67
2022/04/02 01:55:45;;;;;;;7.35;6.65;;;5.10;99.90;;;;;;5053503;28;20201;-67
2022/04/02 01:58:11;;;;;;;9.07;6.28;;;4.90;99.90;;;;;;5054499;28;20182;-67
2022/04/02 02:00:37;;;;;;;6.10;5.60;;;4.70;99.90;;;;;;5053704;28;20177;-67
2022/04/02 02:03:02;;;;;;;6.18;5.60;;;4.80;99.90;;;;;;5053751;28;20497;-67
2022/04/02 02:05:28;;;;;;;7.90;5.70;;;4.90;99.90;;;;;;5054259;28;20269;-67
2022/04/02 02:07:54;;;;;;;7.53;6.20;;;5.20;99.90;;;;;;5053343;28;20178;-67
2022/04/02 02:10:21;;;;;;;7.35;6.65;;;5.40;99.90;;;;;;5053680;28;20235;-67
2022/04/02 02:12:46;;;;;;;8.73;6.30;;;4.70;99.90;;;;;;5052034;28;20181;-67
2022/04/02 02:15:16;;;;;;;7.40;6.30;;;5.20;99.90;;;;;;5053756;28;20174;-67
2022/04/02 02:17:51;;;;;;;6.18;5.57;;;5.30;99.90;;;;;;5052842;28;20711;-67
2022/04/02 02:20:18;;;;;;;5.75;5.25;;;5.30;99.90;;;;;;5053646;28;20178;-67
2022/04/02 02:22:45;;;;;;;6.28;5.68;;;5.00;99.90;;;;;;5053116;28;20572;-68
2022/04/02 02:25:13;;;;;;;6.20;5.65;;;5.20;99.90;;;;;;5053819;28;20261;-67
2022/04/02 02:27:40;;;;;;;6.85;5.03;;;4.80;99.90;;;;;;5052790;28;20182;-67
2022/04/02 02:30:08;;;;;;;4.50;4.10;;;4.70;99.90;;;;;;5053091;28;20173;-67
2022/04/02 02:32:37;;;;;;;4.45;4.10;;;5.10;99.90;;;;;;5052543;28;20212;-68
2022/04/02 02:38:03;;;;;;;5.10;4.70;;;5.20;99.90;;;;;;5052451;28;20681;-67
2022/04/02 02:40:29;;;;;;;4.95;4.45;;;4.70;99.90;;;;;;5053660;28;20186;-66
2022/04/02 02:42:55;;;;;;;4.87;4.33;;;4.70;99.90;;;;;;5053017;28;20177;-67
2022/04/02 02:45:21;;;;;;;5.77;4.37;;;4.80;99.90;;;;;;5053201;28;20201;-67
2022/04/02 02:47:47;;;;;;;5.18;4.20;;;4.80;99.90;;;;;;5052561;28;20205;-67
2022/04/02 02:50:13;;;;;;;4.70;4.23;;;4.90;99.90;;;;;;5053310;28;20259;-67
2022/04/02 02:52:38;;;;;;;4.60;4.07;;;4.90;99.90;;;;;;5052612;28;20637;-67
2022/04/02 02:55:04;;;;;;;5.63;3.73;;;5.00;99.90;;;;;;5053083;28;20174;-67
2022/04/02 02:57:40;;;;;;;5.03;4.38;;;4.80;99.90;;;;;;5052205;28;20213;-67
2022/04/02 03:00:10;;;;;;;6.13;4.05;;;4.70;99.90;;;;;;5052681;28;20239;-67
2022/04/02 03:02:38;;;;;;;3.80;3.60;;;4.80;99.90;;;;;;5051301;28;20225;-70
2022/04/02 03:05:09;;;;;;;4.43;4.03;;;4.80;99.90;;;;;;5053160;28;20188;-67
2022/04/02 03:07:37;;;;;;;4.45;4.15;;;4.60;99.90;;;;;;5051391;28;20170;-75
2022/04/02 03:10:03;;;;;;;4.03;3.72;;;4.90;99.90;;;;;;5052762;28;20180;-67
2022/04/02 03:12:28;;;;;;;4.78;3.90;;;4.60;99.90;;;;;;5051546;28;20181;-67
2022/04/02 03:14:54;;;;;;;4.57;4.17;;;4.70;99.90;;;;;;5052173;28;20170;-67
2022/04/02 03:17:20;;;;;;;4.83;3.90;;;4.70;99.90;;;;;;5051504;28;20243;-67
2022/04/02 03:19:46;;;;;;;5.00;4.00;;;4.90;99.90;;;;;;5051819;28;20179;-67
2022/04/02 03:22:12;;;;;;;4.55;4.10;;;4.60;99.90;;;;;;5052834;28;20308;-67
2022/04/02 03:24:38;;;;;;;4.10;3.80;;;4.10;99.90;;;;;;5052286;28;20710;-67
2022/04/02 03:27:04;;;;;;;4.27;3.87;;;4.60;99.90;;;;;;5052623;28;20201;-67
2022/04/02 03:29:30;;;;;;;4.43;4.00;;;4.10;99.90;;;;;;5051350;28;20254;-67
2022/04/02 03:31:56;;;;;;;4.87;4.37;;;4.40;99.90;;;;;;5051711;28;20174;-67
2022/04/02 03:34:21;;;;;;;6.87;3.80;;;4.10;99.90;;;;;;5052472;28;20174;-67
2022/04/02 03:36:47;;;;;;;3.80;3.40;;;4.50;99.90;;;;;;5051553;28;20206;-67
2022/04/02 03:39:13;;;;;;;4.05;3.75;;;4.30;99.90;;;;;;5052477;28;20212;-67
2022/04/02 03:41:40;;;;;;;4.87;4.40;;;4.00;99.90;;;;;;5051810;28;20240;-67
2022/04/02 03:44:05;;;;;;;10.23;6.43;;;4.30;99.90;;;;;;5052916;28;20637;-67
2022/04/02 03:49:16;;;;;;;5.35;4.13;;;4.30;99.90;;;;;;5052789;28;20378;-67
2022/04/02 03:51:41;;;;;;;5.78;5.35;;;4.40;99.90;;;;;;5051807;28;20174;-67
2022/04/02 03:54:07;;;;;;;5.47;4.43;;;3.70;99.90;;;;;;5052377;28;20181;-66
2022/04/02 03:56:33;;;;;;;4.23;3.83;;;4.20;99.90;;;;;;5052224;28;20430;-67
2022/04/02 03:58:58;;;;;;;4.70;3.50;;;4.10;99.90;;;;;;5051686;28;20189;-67
2022/04/02 04:01:25;;;;;;;6.53;4.83;;;4.00;99.90;;;;;;5051929;28;20292;-67
2022/04/02 04:03:51;;;;;;;5.38;4.05;;;3.90;99.90;;;;;;5051635;28;20174;-67
2022/04/02 04:06:18;;;;;;;4.63;4.20;;;3.90;99.90;;;;;;5052177;28;20202;-67
2022/04/02 04:08:43;;;;;;;6.47;5.90;;;4.30;99.90;;;;;;5054226;28;20174;-67
2022/04/02 04:11:10;;;;;;;7.47;5.30;;;4.20;99.90;;;;;;5055923;28;20177;-67
2022/04/02 04:13:36;;;;;;;10.38;8.15;;;4.00;99.70;;;;;;5056103;28;20179;-67
2022/04/02 04:16:03;;;;;;;10.87;6.37;;;4.30;99.80;;;;;;5055385;28;20205;-67
2022/04/02 04:18:28;;;;;;;5.53;4.80;;;4.30;99.90;;;;;;5055787;28;20626;-67
2022/04/02 04:20:54;;;;;;;5.73;5.13;;;4.00;99.70;;;;;;5053873;28;20217;-67
2022/04/02 04:23:22;;;;;;;7.83;4.60;;;4.20;99.50;;;;;;5055974;28;20170;-67
2022/04/02 04:25:47;;;;;;;10.93;4.78;;;4.10;99.90;;;;;;5055549;28;20181;-67
2022/04/02 04:28:13;;;;;;;9.70;5.70;;;3.80;99.90;;;;;;5056084;28;20614;-67
2022/04/02 04:30:39;;;;;;;6.20;5.10;;;3.90;99.90;;;;;;5055528;28;20231;-67
2022/04/02 04:33:04;;;;;;;6.87;6.23;;;4.50;99.60;;;;;;5055156;28;20173;-67
2022/04/02 04:35:30;;;;;;;10.20;5.63;;;4.60;99.60;;;;;;5055497;28;20261;-67
2022/04/02 04:37:56;;;;;;;7.50;5.43;;;4.30;99.80;;;;;;5054991;28;20190;-68
2022/04/02 04:40:22;;;;;;;10.63;6.53;;;4.40;99.90;;;;;;5055627;28;20170;-66
2022/04/02 04:42:47;;;;;;;4.30;4.00;;;4.60;99.40;;;;;;5054979;28;20774;-67
2022/04/02 04:45:13;;;;;;;7.80;5.30;;;4.40;99.20;;;;;;5055699;28;20178;-67
2022/04/02 04:47:44;;;;;;;7.67;3.83;;;4.00;99.30;;;;;;5055864;28;20264;-67
2022/04/02 04:50:10;;;;;;;7.68;5.15;;;3.80;99.90;;;;;;5055229;28;20765;-67
2022/04/02 04:52:36;;;;;;;7.03;4.80;;;4.20;99.90;;;;;;5055444;28;20173;-67
2022/04/02 04:55:02;;;;;;;10.10;5.27;;;3.80;99.90;;;;;;5053403;28;20197;-66
2022/04/02 04:57:27;;;;;;;4.57;3.90;;;4.60;99.70;;;;;;5055208;28;20245;-67
2022/04/02 04:59:53;;;;;;;4.90;4.40;;;4.50;99.60;;;;;;5053487;28;20428;-67
2022/04/02 05:02:20;;;;;;;10.83;7.90;;;4.10;99.00;;;;;;5055252;28;20242;-67
2022/04/02 05:04:46;;;;;;;8.98;5.85;;;4.20;99.10;;;;;;5054563;28;20181;-67
2022/04/02 05:07:12;;;;;;;8.90;5.67;;;4.30;99.20;;;;;;5055353;28;20174;-67
2022/04/02 05:09:39;;;;;;;8.20;5.93;;;4.60;99.20;;;;;;5054685;28;20527;-67
2022/04/02 05:12:06;;;;;;;9.50;7.53;;;4.80;99.10;;;;;;5053006;28;20598;-67
2022/04/02 05:14:32;;;;;;;7.88;4.82;;;4.70;99.00;;;;;;5054934;28;20174;-67
2022/04/02 05:16:58;;;;;;;7.47;5.22;;;4.00;98.90;;;;;;5054236;28;20625;-67
2022/04/02 05:19:24;;;;;;;7.60;4.27;;;4.00;98.90;;;;;;5054018;28;20269;-67
2022/04/02 05:21:50;;;;;;;9.27;6.57;;;4.50;99.20;;;;;;5054443;28;20608;-67
2022/04/02 05:24:17;;;;;;;8.15;5.75;;;4.00;99.40;;;;;;5055120;28;20184;-67
2022/04/02 05:26:43;;;;;;;6.43;4.50;;;4.00;99.10;;;;;;5054497;28;20217;-67
2022/04/02 05:29:10;;;;;;;7.57;5.25;;;4.50;99.90;;;;;;5053396;28;20178;-68
2022/04/02 05:31:36;;;;;;;8.45;7.00;;;4.50;99.20;;;;;;5054602;28;20212;-67
2022/04/02 05:34:02;;;;;;;7.07;5.17;;;3.90;98.80;;;;;;5053686;28;20201;-67
2022/04/02 05:36:27;;;;;;;9.97;6.27;;;4.70;98.80;;;;;;5054195;28;20462;-67
2022/04/02 05:38:53;;;;;;;6.53;4.93;;;4.40;98.80;;;;;;5054203;28;20243;-67
2022/04/02 05:41:19;;;;;;;7.47;5.80;;;4.80;99.00;;;;;;5054450;28;20272;-67
2022/04/02 05:43:44;;;;;;;6.70;5.40;;;4.10;98.30;;;;;;5053967;28;20523;-75
2022/04/02 05:46:12;;;;;;;5.67;5.17;;;4.50;98.70;;;;;;5054371;28;20227;-67
2022/04/02 05:48:38;;;;;;;5.65;4.80;;;4.00;98.50;;;;;;5054340;28;20185;-67
2022/04/02 05:51:03;;;;;;;12.30;7.93;;;4.20;98.40;;;;;;5053690;28;20178;-67
2022/04/02 05:53:29;;;;;;;7.83;6.20;;;4.40;98.30;;;;;;5054570;28;20426;-67
2022/04/02 05:55:55;;;;;;;9.27;7.00;;;4.30;98.10;;;;;;5052294;28;20174;-67
2022/04/02 05:58:21;;;;;;;5.57;5.17;;;4.70;98.40;;;;;;5054188;28;20626;-67
2022/04/02 06:00:46;;;;;;;11.30;7.87;;;4.20;97.50;;;;;;5053179;28;20943;-68
2022/04/02 06:03:15;;;;;;;7.43;6.63;;;4.70;98.00;;;;;;5054041;28;20863;-67
2022/04/02 06:05:41;;;;;;;12.95;8.80;;;4.10;97.90;;;;;;5054066;28;20190;-67
2022/04/02 06:08:07;;;;;;;8.60;5.90;;;4.80;97.70;;;;;;5053336;28;20192;-67
2022/04/02 06:10:33;;;;;;;10.00;6.60;;;4.80;97.70;;;;;;5053929;28;20185;-67
2022/04/02 06:12:59;;;;;;;8.43;6.20;;;4.80;97.70;;;;;;5053208;28;20384;-67
2022/04/02 06:15:24;;;;;;;9.13;6.90;;;4.50;97.60;;;;;;5053502;28;20249;-67
2022/04/02 06:17:51;;;;;;;7.80;5.47;;;4.70;97.70;;;;;;5053030;28;20486;-67
2022/04/02 06:20:17;;;;;;;6.30;5.20;;;4.50;97.50;;;;;;5053390;28;20519;-67
2022/04/02 06:22:43;;;;;;;7.77;6.57;;;4.80;97.20;;;;;;5053725;28;20177;-67
2022/04/02 06:25:09;;;;;;;5.20;4.70;;;4.70;97.00;;;;;;5052749;28;20677;-67
2022/04/02 06:27:47;;;;;;;5.38;4.82;;;4.70;97.60;;;;;;5053587;28;20174;-67
2022/04/02 06:30:15;;;;;;;13.88;7.13;;;4.50;97.70;;;;;;5053740;28;20222;-67
2022/04/02 06:32:41;;;;;;;8.32;7.38;;;4.30;97.20;;;;;;5053475;28;20529;-67
2022/04/02 06:35:07;;;;;;;10.20;8.13;;;4.40;96.80;;;;;;5052822;28;20174;-67
2022/04/02 06:37:38;;;;;;;9.07;6.57;;;4.80;97.20;;;;;;5052183;28;20232;-67
2022/04/02 06:40:06;;;;;;;5.78;5.00;;;4.40;97.50;;;;;;5052738;28;20247;-67
2022/04/02 06:42:32;;;;;;;9.45;5.20;;;4.50;97.60;;;;;;5053058;28;20180;-67
2022/04/02 06:44:58;;;;;;;8.07;5.68;;;4.60;97.70;;;;;;5052657;28;20182;-67
2022/04/02 06:47:29;;;;;;;9.73;4.67;;;4.20;97.90;;;;;;5053551;28;20677;-67
2022/04/02 06:49:56;;;;;;;6.10;5.20;;;4.40;97.70;;;;;;5052886;28;20158;-67
2022/04/02 06:52:23;;;;;;;11.32;8.85;;;4.60;97.80;;;;;;5052781;28;20197;-67
2022/04/02 06:54:49;;;;;;;14.23;9.40;;;5.00;98.00;;;;;;5052728;28;20226;-73
2022/04/02 06:57:19;;;;;;;6.70;5.72;;;4.90;97.50;;;;;;5053089;28;20201;-67
2022/04/02 06:59:45;;;;;;;9.23;7.43;;;4.60;97.50;;;;;;5053022;28;20217;-67
2022/04/02 07:02:10;;;;;;;10.90;6.90;;;4.20;97.40;;;;;;5052539;28;20170;-67
2022/04/02 07:04:36;;;;;;;7.23;6.30;;;4.80;97.30;;;;;;5053024;28;20176;-67
2022/04/02 07:07:02;;;;;;;13.43;7.10;;;4.60;97.00;;;;;;5052348;28;20178;-67
2022/04/02 07:09:28;;;;;;;10.25;7.10;;;4.90;97.00;;;;;;5053025;28;20170;-67
2022/04/02 07:11:55;;;;;;;6.77;5.30;;;5.00;96.30;;;;;;5050988;28;20619;-68
2022/04/02 07:14:21;;;;;;;8.15;5.15;;;4.80;96.60;;;;;;5052438;28;20529;-67
2022/04/02 07:16:47;;;;;;;9.33;6.53;;;4.80;96.70;;;;;;5052718;28;20202;-67
2022/04/02 07:19:13;;;;;;;9.20;5.57;;;5.00;96.90;;;;;;5052374;28;20963;-67
2022/04/02 07:21:43;;;;;;;13.77;9.02;;;4.40;97.10;;;;;;5052793;28;20232;-67
2022/04/02 07:24:11;;;;;;;8.85;6.57;;;4.90;97.80;;;;;;5052006;28;20182;-67
2022/04/02 07:26:37;;;;;;;13.32;7.38;;;4.60;97.50;;;;;;5051658;28;20633;-67
2022/04/02 07:29:03;;;;;;;8.88;6.65;;;4.80;97.10;;;;;;5050648;28;20178;-67
2022/04/02 07:31:29;;;;;;;7.88;6.60;;;5.20;97.00;;;;;;5052117;28;20666;-67
2022/04/02 07:33:55;;;;;;;7.00;5.30;;;5.00;97.00;;;;;;5051932;28;20209;-67
2022/04/02 07:36:41;;;;;;;14.07;9.17;;;5.20;96.30;;;;;;5051510;28;20535;-67
2022/04/02 07:39:43;;;;;;;6.70;6.00;;;5.20;96.40;;;;;;5051932;28;20182;-67
2022/04/02 07:42:21;;;;;;;6.68;5.97;;;5.40;96.60;;;;;;5052631;28;20193;-67
2022/04/02 07:45:05;;;;;;;7.65;5.88;;;5.40;95.20;;;;;;5059405;28;20492;-67
2022/04/02 07:47:33;;;;;;;4.70;4.20;;;5.40;95.50;;;;;;5059533;28;20162;-67
2022/04/02 07:50:08;;;;;;;4.20;3.90;;;5.60;95.50;;;;;;5058490;28;20260;-67
2022/04/02 07:52:36;;;;;;;4.38;4.07;;;5.60;94.50;;;;;;5059027;28;20190;-67
2022/04/02 07:55:06;;;;;;;6.25;5.65;;;5.30;95.00;;;;;;5058144;28;20269;-67
2022/04/02 07:57:45;;;;;;;4.28;3.70;;;5.70;95.10;;;;;;5058958;28;20228;-67
2022/04/02 08:00:14;;;;;;;6.25;5.60;;;5.60;95.20;;;;;;5057019;28;20186;-67
2022/04/02 08:02:43;;;;;;;5.82;4.88;;;5.90;95.30;;;;;;5059233;28;20266;-67
2022/04/02 08:05:11;;;;;;;5.65;5.25;;;6.00;94.70;;;;;;5058352;28;20170;-67
2022/04/02 08:07:49;;;;;;;4.57;4.15;;;5.60;93.40;;;;;;5057150;28;20177;-67
2022/04/02 08:10:20;;;;;;;11.68;7.80;;;6.10;94.10;;;;;;5057783;28;20708;-67
2022/04/02 08:12:51;;;;;;;6.13;5.53;;;6.10;95.00;;;;;;5058637;28;20177;-67
2022/04/02 08:15:21;;;;;;;5.30;4.80;;;5.60;93.60;;;;;;5058202;28;20393;-67
2022/04/02 08:17:54;;;;;;;4.97;4.50;;;6.10;93.60;;;;;;5058819;28;20483;-67
2022/04/02 08:20:21;;;;;;;8.67;6.70;;;5.80;93.80;;;;;;5058298;28;20698;-67
2022/04/02 08:22:47;;;;;;;5.87;5.37;;;6.20;93.80;;;;;;5057318;28;20419;-67
2022/04/02 08:25:15;;;;;;;7.00;6.05;;;6.30;93.50;;;;;;5058142;28;20413;-67
2022/04/02 08:27:49;;;;;;;7.37;6.67;;;6.50;93.50;;;;;;5058684;28;20178;-67
2022/04/02 08:30:22;;;;;;;5.07;4.60;;;6.30;93.40;;;;;;5057911;28;20919;-67
2022/04/02 08:33:25;;;;;;;6.50;5.90;;;6.40;93.60;;;;;;5058688;28;20459;-67
2022/04/02 08:36:04;;;;;;;5.97;5.47;;;6.50;92.50;;;;;;5058535;28;20425;-67
2022/04/02 08:38:46;;;;;;;5.90;4.67;;;6.50;92.40;;;;;;5058745;28;20455;-67
2022/04/02 08:41:49;;;;;;;4.57;4.17;;;6.50;92.20;;;;;;5057985;28;20393;-67
2022/04/02 08:44:52;;;;;;;4.90;4.50;;;6.50;91.60;;;;;;5056474;28;20480;-67
2022/04/02 08:47:36;;;;;;;4.00;3.70;;;6.50;92.20;;;;;;5057509;28;20378;-67
2022/04/02 08:50:07;;;;;;;4.13;3.73;;;6.60;92.90;;;;;;5056532;28;20183;-67
2022/04/02 08:52:56;;;;;;;4.60;4.20;;;6.40;93.00;;;;;;5058372;28;20399;-67
2022/04/02 08:55:41;;;;;;;4.97;4.40;;;6.60;92.50;;;;;;5054612;28;20402;-67
2022/04/02 08:58:18;;;;;;;8.40;6.13;;;6.50;93.00;;;;;;5054670;28;20542;-67
2022/04/02 09:01:04;;;;;;;4.80;4.37;;;6.20;92.10;;;;;;5055099;28;20422;-67
2022/04/02 09:03:58;;;;;;;6.50;6.00;;;6.50;92.30;;;;;;5055526;28;20424;-67
2022/04/02 09:06:58;;;;;;;5.03;4.53;;;6.80;92.80;;;;;;5055097;28;20535;-67
2022/04/02 09:09:52;;;;;;;4.40;4.00;;;6.80;91.50;;;;;;5053872;28;20417;-67
2022/04/02 09:12:27;;;;;;;6.90;5.00;;;6.50;91.70;;;;;;5054501;28;20437;-67
2022/04/02 09:14:59;;;;;;;4.83;4.40;;;6.80;91.70;;;;;;5055038;28;20422;-67
2022/04/02 09:17:44;;;;;;;5.70;5.10;;;6.80;91.10;;;;;;5055106;28;20438;-67
2022/04/02 09:20:25;;;;;;;6.50;5.87;;;7.10;90.10;;;;;;5054107;28;20415;-67
2022/04/02 09:23:06;;;;;;;5.60;5.20;;;7.40;90.80;;;;;;5055014;28;20762;-67
2022/04/02 09:26:02;;;;;;;5.90;5.40;;;7.60;90.30;;;;;;5054823;28;20415;-67
2022/04/02 09:29:05;;;;;;;4.60;4.27;;;7.80;89.20;;;;;;5054951;28;20417;-67
2022/04/02 09:31:53;;;;;;;5.20;4.80;;;7.80;86.10;;;;;;5054848;28;20411;-67
2022/04/02 09:34:54;;;;;;;5.50;4.97;;;7.80;87.20;;;;;;5053744;28;20808;-67
2022/04/02 09:37:47;;;;;;;5.20;4.70;;;7.90;87.00;;;;;;5054007;28;20550;-67
2022/04/02 09:40:12;;;;;;;4.90;4.50;;;8.10;85.80;;;;;;5052717;28;20920;-67
2022/04/02 09:42:51;;;;;;;6.00;5.50;;;7.80;86.60;;;;;;5054550;28;20416;-67
2022/04/02 09:45:21;;;;;;;6.10;5.50;;;7.80;87.40;;;;;;5053822;28;20327;-67
2022/04/02 09:48:01;;;;;;;6.40;5.80;;;7.50;86.40;;;;;;5054366;28;20425;-67
2022/04/02 09:50:29;;;;;;;7.83;7.13;;;8.20;88.70;;;;;;5054287;28;20411;-67
2022/04/02 09:52:57;;;;;;;6.07;5.50;;;8.40;88.40;;;;;;5054514;28;20427;-67
2022/04/02 09:55:27;;;;;;;5.43;4.93;;;8.50;86.60;;;;;;5053577;28;20404;-68
2022/04/02 09:58:08;;;;;;;6.63;5.90;;;8.70;86.00;;;;;;5053418;28;20452;-67
2022/04/02 10:01:01;;;;;;;5.47;4.93;;;8.70;83.20;;;;;;5052810;28;20446;-67
2022/04/02 10:03:45;;;;;;;6.10;5.53;;;8.70;83.60;;;;;;5053891;28;20409;-67
2022/04/02 10:06:25;;;;;;;6.10;5.50;;;8.90;84.20;;;;;;5053099;28;20404;-68
2022/04/02 10:09:02;;;;;;;5.90;5.30;;;8.80;81.00;;;;;;5053981;28;20412;-67
2022/04/02 10:11:30;;;;;;;5.70;5.20;;;8.90;82.90;;;;;;5052805;28;20404;-67
2022/04/02 10:14:01;;;;;;;6.90;5.07;;;8.90;81.90;;;;;;5053868;28;20397;-66
2022/04/02 10:16:28;;;;;;;5.90;5.30;;;8.90;79.30;;;;;;5054015;28;20457;-67
2022/04/02 10:18:57;;;;;;;6.70;6.10;;;9.00;81.60;;;;;;5054074;28;20428;-67
2022/04/02 10:21:23;;;;;;;5.53;4.80;;;9.10;81.30;;;;;;5052936;28;20456;-67
2022/04/02 10:23:54;;;;;;;5.30;4.80;;;9.00;79.00;;;;;;5052380;28;20443;-67
2022/04/02 10:26:26;;;;;;;6.97;6.03;;;8.90;79.00;;;;;;5053372;28;20744;-67
2022/04/02 10:28:57;;;;;;;7.97;6.90;;;8.90;78.70;;;;;;5053651;28;20844;-67
2022/04/02 10:31:37;;;;;;;5.63;5.13;;;9.00;81.00;;;;;;5052572;28;20999;-68
2022/04/02 10:34:40;;;;;;;5.20;4.77;;;8.80;82.10;;;;;;5051632;28;20814;-68
2022/04/02 10:37:13;;;;;;;6.00;5.43;;;8.80;81.80;;;;;;5052793;28;20837;-67
2022/04/02 10:40:02;;;;;;;5.20;4.80;;;9.00;81.90;;;;;;5053102;28;20943;-67
2022/04/02 10:42:42;;;;;;;5.80;5.30;;;9.00;79.90;;;;;;5053392;28;20408;-66
2022/04/02 10:45:11;;;;;;;9.50;6.37;;;8.90;79.00;;;;;;5052576;28;20389;-67
2022/04/02 10:48:08;;;;;;;7.80;5.90;;;8.70;79.80;;;;;;5053171;28;20431;-67
2022/04/02 10:50:35;;;;;;;7.37;6.17;;;8.70;79.80;;;;;;5053626;28;20404;-68
2022/04/02 10:53:03;;;;;;;13.70;7.90;;;8.60;79.00;;;;;;5053148;28;20409;-68
2022/04/02 10:55:29;;;;;;;8.70;7.60;;;8.50;81.10;;;;;;5053365;28;20412;-66
2022/04/02 10:57:59;;;;;;;6.27;5.77;;;8.60;81.90;;;;;;5052983;28;20452;-67
2022/04/02 11:00:29;;;;;;;6.80;6.17;;;8.30;80.60;;;;;;5052558;28;20423;-67
2022/04/02 11:03:03;;;;;;;6.03;5.63;;;8.10;81.60;;;;;;5052952;28;20951;-67
2022/04/02 11:05:38;;;;;;;7.70;7.00;;;8.20;81.20;;;;;;5052852;28;20400;-67
2022/04/02 11:08:06;;;;;;;6.70;6.10;;;8.30;81.30;;;;;;5034726;28;20419;-71
2022/04/02 11:10:35;;;;;;;7.13;6.63;;;8.20;81.00;;;;;;5052206;28;20409;-67
2022/04/02 11:13:04;;;;;;;6.77;6.17;;;8.30;80.50;;;;;;5051429;28;20416;-67
2022/04/02 11:15:38;;;;;;;9.00;6.03;;;8.10;78.10;;;;;;5052742;28;20416;-67
2022/04/02 11:18:04;;;;;;;5.70;5.30;;;8.00;79.10;;;;;;5052107;28;20467;-67
2022/04/02 11:20:31;;;;;;;6.87;6.37;;;8.30;78.40;;;;;;5052493;28;20448;-67
2022/04/02 11:23:14;;;;;;;6.87;6.17;;;8.50;78.00;;;;;;5052798;28;20809;-67
2022/04/02 11:25:50;;;;;;;5.77;5.37;;;8.60;79.20;;;;;;5053038;28;20459;-67
2022/04/02 11:28:18;;;;;;;6.67;5.97;;;8.40;79.40;;;;;;5052053;28;20410;-68
2022/04/02 11:30:49;;;;;;;9.13;6.60;;;8.50;79.30;;;;;;5052579;28;20742;-67
2022/04/02 11:33:24;;;;;;;10.40;8.47;;;8.60;80.50;;;;;;5052010;28;20910;-67
2022/04/02 11:35:51;;;;;;;8.83;6.93;;;8.70;79.90;;;;;;5052577;28;20442;-67
2022/04/02 11:38:26;;;;;;;5.67;5.17;;;8.60;80.00;;;;;;5051849;28;20452;-67
2022/04/02 11:41:14;;;;;;;5.83;5.33;;;8.30;77.40;;;;;;5052941;28;20745;-67
2022/04/02 11:43:43;;;;;;;5.90;5.40;;;7.90;78.70;;;;;;5052477;28;20410;-67
2022/04/02 11:46:14;;;;;;;7.20;6.03;;;7.70;80.30;;;;;;5051850;28;20412;-68
2022/04/02 11:48:59;;;;;;;6.70;6.00;;;7.50;79.50;;;;;;5051243;28;20446;-67
2022/04/02 11:51:34;;;;;;;8.93;6.90;;;7.60;82.00;;;;;;5050585;28;20880;-67
2022/04/02 11:54:07;;;;;;;8.00;7.20;;;7.80;85.00;;;;;;5052394;28;20741;-67
2022/04/02 11:56:34;;;;;;;7.67;6.03;;;7.80;84.60;;;;;;5052607;28;20981;-67
2022/04/02 11:59:07;;;;;;;13.40;9.00;;;7.50;85.10;;;;;;5052070;28;20807;-67
2022/04/02 12:01:50;;;;;;;11.10;7.63;;;7.50;87.00;;;;;;5052260;28;20857;-67
2022/04/02 12:04:18;;;;;;;11.03;7.73;;;7.50;87.70;;;;;;5052028;28;20396;-67
2022/04/02 12:06:45;;;;;;;16.37;9.10;;;7.50;87.80;;;;;;5052292;28;20509;-67
2022/04/02 12:09:13;;;;;;;10.40;7.77;;;7.40;88.80;;;;;;5051596;28;20414;-67
2022/04/02 12:11:42;;;;;;;6.73;6.10;;;7.30;88.60;;;;;;5051993;28;20923;-67
2022/04/02 12:14:07;;;;;;;5.57;5.17;;;7.30;89.40;;;;;;5051886;28;20520;-75
2022/04/02 12:16:38;;;;;;;6.40;5.80;;;7.10;87.60;;;;;;5052195;28;20544;-67
2022/04/02 12:19:05;;;;;;;6.73;5.87;;;7.60;86.20;;;;;;5052158;28;20399;-67
2022/04/02 12:21:36;;;;;;;7.87;6.37;;;7.60;86.40;;;;;;5051524;28;20458;-67
2022/04/02 12:24:04;;;;;;;8.93;7.43;;;7.30;87.50;;;;;;5052039;28;20880;-67
2022/04/02 12:26:30;;;;;;;11.17;7.70;;;7.50;88.80;;;;;;5051623;28;20515;-67
2022/04/02 12:29:01;;;;;;;8.60;6.70;;;7.40;89.60;;;;;;5053459;28;20414;-67
2022/04/02 12:31:29;;;;;;;9.50;7.50;;;7.20;90.80;;;;;;5055431;28;20947;-67
2022/04/02 12:33:55;;;;;;;10.70;8.30;;;7.30;91.20;;;;;;5055894;28;20407;-67
2022/04/02 12:36:35;;;;;;;14.90;9.23;;;7.30;91.50;;;;;;5053884;28;20564;-67
2022/04/02 12:39:04;;;;;;;13.03;9.43;;;7.60;91.80;;;;;;5055441;28;20919;-67
2022/04/02 12:41:30;;;;;;;8.13;7.30;;;7.70;91.10;;;;;;5055084;28;20446;-67
2022/04/02 12:44:05;;;;;;;11.23;8.67;;;7.70;90.60;;;;;;5055564;28;20415;-67
2022/04/02 12:46:31;;;;;;;14.63;9.37;;;8.00;91.10;;;;;;5054949;28;20734;-67
2022/04/02 12:48:58;;;;;;;17.00;9.40;;;7.90;90.40;;;;;;5055514;28;20415;-67
2022/04/02 12:51:25;;;;;;;11.17;7.60;;;8.00;90.20;;;;;;5054646;28;20177;-67
2022/04/02 12:54:01;;;;;;;8.97;7.43;;;8.00;90.30;;;;;;5055701;28;20811;-67
2022/04/02 12:56:29;;;;;;;15.50;10.33;;;8.10;90.20;;;;;;5054780;28;20793;-67
2022/04/02 12:58:56;;;;;;;10.67;6.80;;;8.00;88.80;;;;;;5055181;28;20420;-66
2022/04/02 13:01:25;;;;;;;6.77;6.07;;;8.00;87.40;;;;;;5054784;28;20430;-67
2022/04/02 13:04:11;;;;;;;8.80;6.60;;;8.00;86.50;;;;;;5054925;28;20424;-68
2022/04/02 13:06:44;;;;;;;16.93;10.43;;;8.10;87.20;;;;;;5055614;28;20407;-68
2022/04/02 13:09:14;;;;;;;8.30;7.30;;;8.20;86.70;;;;;;5053897;28;20427;-67
2022/04/02 13:11:45;;;;;;;7.50;5.73;;;8.10;86.20;;;;;;5053832;28;20832;-67
2022/04/02 13:14:19;;;;;;;8.23;6.03;;;7.70;88.60;;;;;;5055027;28;20414;-67
2022/04/02 13:16:47;;;;;;;16.80;9.20;;;7.50;91.20;;;;;;5055012;28;20455;-67